createdAt,value
2023-01-25T00:00:48.038Z,3.92
2023-01-25T00:03:15.037Z,3.40
2023-01-25T00:05:42.192Z,2.53
2023-01-25T00:08:09.100Z,2.88
2023-01-25T00:10:36.209Z,2.67
2023-01-25T00:13:03.223Z,3.30
2023-01-25T00:15:31.028Z,2.92
2023-01-25T00:17:57.979Z,2.55
2023-01-25T00:20:24.740Z,2.70
2023-01-25T00:22:51.640Z,2.60
2023-01-25T00:25:18.592Z,2.50
2023-01-25T00:27:45.485Z,2.40
2023-01-25T00:30:12.620Z,2.72
2023-01-25T00:32:53.264Z,2.67
2023-01-25T00:35:21.597Z,2.67
2023-01-25T00:37:50.174Z,2.80
2023-01-25T00:40:17.480Z,2.90
2023-01-25T00:42:44.508Z,2.50
2023-01-25T00:45:12.605Z,2.33
2023-01-25T00:47:39.592Z,2.40
2023-01-25T00:50:08.410Z,2.10
2023-01-25T00:52:35.441Z,1.85
2023-01-25T00:55:02.730Z,2.58
2023-01-25T00:57:29.613Z,2.20
2023-01-25T00:59:56.521Z,2.53
2023-01-25T01:02:23.449Z,1.63
2023-01-25T01:04:50.425Z,2.05
2023-01-25T01:07:17.292Z,2.30
2023-01-25T01:09:44.154Z,2.00
2023-01-25T01:12:11.154Z,2.38
2023-01-25T01:14:38.163Z,2.10
2023-01-25T01:17:05.169Z,1.90
2023-01-25T01:19:32.236Z,1.60
2023-01-25T01:21:59.146Z,1.90
2023-01-25T01:24:26.114Z,2.25
2023-01-25T01:26:52.981Z,1.55
2023-01-25T01:29:20.087Z,2.15
2023-01-25T01:31:49.558Z,2.25
2023-01-25T01:34:16.444Z,1.92
2023-01-25T01:36:43.501Z,2.20
2023-01-25T01:39:10.352Z,1.45
2023-01-25T01:41:37.815Z,1.70
2023-01-25T01:44:05.422Z,1.60
2023-01-25T01:46:37.509Z,1.88
2023-01-25T01:49:34.055Z,1.45
2023-01-25T01:52:08.025Z,1.65
2023-01-25T01:54:41.451Z,1.90
2023-01-25T01:57:36.757Z,1.70
2023-01-25T02:00:16.539Z,1.80
2023-01-25T02:02:43.330Z,1.42
2023-01-25T02:05:20.145Z,1.60
2023-01-25T02:07:50.030Z,1.17
2023-01-25T02:10:18.331Z,1.60
2023-01-25T02:12:45.998Z,1.63
2023-01-25T02:15:13.050Z,2.00
2023-01-25T02:17:41.606Z,1.60
2023-01-25T02:20:23.519Z,1.65
2023-01-25T02:23:08.204Z,1.45
2023-01-25T02:25:35.337Z,1.48
2023-01-25T02:28:02.313Z,1.65
2023-01-25T02:30:29.181Z,1.70
2023-01-25T02:32:55.996Z,1.50
2023-01-25T02:35:25.751Z,1.50
2023-01-25T02:37:52.689Z,1.63
2023-01-25T02:40:20.001Z,1.80
2023-01-25T02:42:47.287Z,1.70
2023-01-25T02:45:19.228Z,1.55
2023-01-25T02:47:46.303Z,1.65
2023-01-25T02:50:15.090Z,1.80
2023-01-25T02:52:42.969Z,2.08
2023-01-25T02:55:10.356Z,1.45
2023-01-25T02:57:37.356Z,1.88
2023-01-25T03:00:05.940Z,2.03
2023-01-25T03:02:32.912Z,1.95
2023-01-25T03:04:59.918Z,2.10
2023-01-25T03:07:26.817Z,1.92
2023-01-25T03:09:53.777Z,2.35
2023-01-25T03:12:20.719Z,1.90
2023-01-25T03:14:47.579Z,1.52
2023-01-25T03:17:14.475Z,2.42
2023-01-25T03:19:41.552Z,2.22
2023-01-25T03:22:09.840Z,2.10
2023-01-25T03:24:37.105Z,2.20
2023-01-25T03:27:14.477Z,1.90
2023-01-25T03:29:42.074Z,2.00
2023-01-25T03:32:09.497Z,1.90
2023-01-25T03:34:36.346Z,2.05
2023-01-25T03:37:03.902Z,1.95
2023-01-25T03:39:31.091Z,2.30
2023-01-25T03:41:57.985Z,1.90
2023-01-25T03:44:25.029Z,1.88
2023-01-25T03:46:52.091Z,2.05
2023-01-25T03:49:19.446Z,2.40
2023-01-25T03:51:46.348Z,2.13
2023-01-25T03:54:13.073Z,2.30
2023-01-25T03:56:40.370Z,2.47
2023-01-25T03:59:07.583Z,2.55
2023-01-25T04:01:34.649Z,2.25
2023-01-25T04:04:01.396Z,2.70
2023-01-25T04:06:28.543Z,2.03
2023-01-25T04:08:55.554Z,2.47
2023-01-25T04:11:22.440Z,2.05
2023-01-25T04:13:49.276Z,2.35
2023-01-25T04:16:16.234Z,2.08
2023-01-25T04:18:43.141Z,2.45
2023-01-25T04:21:10.191Z,2.47
2023-01-25T04:23:37.124Z,2.67
2023-01-25T04:26:07.257Z,2.47
2023-01-25T04:28:35.274Z,2.53
2023-01-25T04:31:03.857Z,2.63
2023-01-25T04:33:30.900Z,2.70
2023-01-25T04:35:57.812Z,2.42
2023-01-25T04:38:24.885Z,2.70
2023-01-25T04:40:52.247Z,1.70
2023-01-25T04:43:21.326Z,2.75
2023-01-25T04:45:48.283Z,2.50
2023-01-25T04:48:15.505Z,2.45
2023-01-25T04:50:43.603Z,2.50
2023-01-25T04:53:12.192Z,1.70
2023-01-25T04:55:39.479Z,2.25
2023-01-25T04:58:06.834Z,2.30
2023-01-25T05:00:33.988Z,1.92
2023-01-25T05:03:00.918Z,1.48
2023-01-25T05:05:27.965Z,1.40
2023-01-25T05:07:54.939Z,2.13
2023-01-25T05:10:22.103Z,1.65
2023-01-25T05:12:49.107Z,1.70
2023-01-25T05:15:16.225Z,2.10
2023-01-25T05:17:43.122Z,2.10
2023-01-25T05:20:10.730Z,1.77
2023-01-25T05:22:37.798Z,1.70
2023-01-25T05:25:07.378Z,1.90
2023-01-25T05:27:34.516Z,1.77
2023-01-25T05:30:01.542Z,1.80
2023-01-25T05:32:28.607Z,1.63
2023-01-25T05:34:55.508Z,2.20
2023-01-25T05:37:22.473Z,2.00
2023-01-25T05:39:49.495Z,1.75
2023-01-25T05:42:19.583Z,1.73
2023-01-25T05:44:47.901Z,1.90
2023-01-25T05:47:17.544Z,1.88
2023-01-25T05:49:44.859Z,1.80
2023-01-25T05:52:16.395Z,1.60
2023-01-25T05:54:43.588Z,1.75
2023-01-25T05:57:10.912Z,1.45
2023-01-25T05:59:37.973Z,1.95
2023-01-25T06:02:04.621Z,1.75
2023-01-25T06:04:31.411Z,1.70
2023-01-25T06:06:58.592Z,1.75
2023-01-25T06:09:26.561Z,1.98
2023-01-25T06:11:53.523Z,1.80
2023-01-25T06:14:20.494Z,1.90
2023-01-25T06:16:47.350Z,1.70
2023-01-25T06:19:14.597Z,1.83
2023-01-25T06:21:41.545Z,2.00
2023-01-25T06:24:08.693Z,1.77
2023-01-25T06:26:35.706Z,1.50
2023-01-25T06:29:05.959Z,1.63
2023-01-25T06:31:33.219Z,1.70
2023-01-25T06:34:04.557Z,2.22
2023-01-25T06:36:31.661Z,2.10
2023-01-25T06:38:58.692Z,1.90
2023-01-25T06:41:26.183Z,2.28
2023-01-25T06:43:53.642Z,1.95
2023-01-25T06:46:20.625Z,2.00
2023-01-25T06:48:47.991Z,2.17
2023-01-25T06:51:16.225Z,2.10
2023-01-25T06:53:47.561Z,2.30
2023-01-25T06:56:17.885Z,2.08
2023-01-25T06:58:46.083Z,2.03
2023-01-25T07:01:16.512Z,2.55
2023-01-25T07:03:43.572Z,1.90
2023-01-25T07:06:11.837Z,1.98
2023-01-25T07:08:39.884Z,2.03
2023-01-25T07:11:12.660Z,2.10
2023-01-25T07:13:45.950Z,1.60
2023-01-25T07:16:15.457Z,1.80
2023-01-25T07:18:42.575Z,1.70
2023-01-25T07:21:13.682Z,1.38
2023-01-25T07:23:41.734Z,1.80
2023-01-25T07:26:17.011Z,1.10
2023-01-25T07:28:44.532Z,1.13
2023-01-25T07:31:11.772Z,1.55
2023-01-25T07:33:38.857Z,1.40
2023-01-25T07:36:08.920Z,1.70
2023-01-25T07:38:36.557Z,1.20
2023-01-25T07:41:04.317Z,1.55
2023-01-25T07:43:31.760Z,1.60
2023-01-25T07:46:07.150Z,1.30
2023-01-25T07:48:34.488Z,1.60
2023-01-25T07:51:11.843Z,1.30
2023-01-25T07:53:43.575Z,1.70
2023-01-25T07:56:12.324Z,1.17
2023-01-25T07:58:39.756Z,1.80
2023-01-25T08:01:08.167Z,1.02
2023-01-25T08:03:35.136Z,1.50
2023-01-25T08:06:02.211Z,1.50
2023-01-25T08:08:29.296Z,1.13
2023-01-25T08:10:56.414Z,1.10
2023-01-25T08:13:23.479Z,1.13
2023-01-25T08:15:55.032Z,1.10
2023-01-25T08:18:22.094Z,1.23
2023-01-25T08:20:49.151Z,1.33
2023-01-25T08:23:16.173Z,1.15
2023-01-25T08:25:43.064Z,0.98
2023-01-25T08:28:09.973Z,1.13
2023-01-25T08:30:41.234Z,1.20
2023-01-25T08:33:12.766Z,1.17
2023-01-25T08:35:39.817Z,1.50
2023-01-25T08:38:06.791Z,0.70
2023-01-25T08:40:37.006Z,1.02
2023-01-25T08:43:05.628Z,0.75
2023-01-25T08:45:34.784Z,1.17
2023-01-25T08:48:01.735Z,1.10
2023-01-25T08:50:28.859Z,1.02
2023-01-25T08:52:58.388Z,0.80
2023-01-25T08:55:25.440Z,1.00
2023-01-25T08:57:52.193Z,1.08
2023-01-25T09:00:20.249Z,0.80
2023-01-25T09:02:47.284Z,0.80
2023-01-25T09:05:14.435Z,1.13
2023-01-25T09:07:41.505Z,0.73
2023-01-25T09:10:09.424Z,0.77
2023-01-25T09:12:36.696Z,1.08
2023-01-25T09:15:08.104Z,0.73
2023-01-25T09:17:39.220Z,0.90
2023-01-25T09:20:07.910Z,0.77
2023-01-25T09:22:35.359Z,0.85
2023-01-25T09:25:02.328Z,0.60
2023-01-25T09:27:29.213Z,1.02
2023-01-25T09:30:13.656Z,0.95
2023-01-25T09:32:43.008Z,2.03
2023-01-25T09:35:10.928Z,1.00
2023-01-25T09:37:37.686Z,0.90
2023-01-25T09:40:05.315Z,1.10
2023-01-25T09:42:53.844Z,0.80
2023-01-25T09:45:37.136Z,1.00
2023-01-25T09:48:22.150Z,1.00
2023-01-25T09:50:51.892Z,2.08
2023-01-25T09:53:24.558Z,0.90
2023-01-25T09:55:55.850Z,2.10
2023-01-25T09:58:36.224Z,0.80
2023-01-25T10:01:38.980Z,0.90
2023-01-25T10:04:18.796Z,1.00
2023-01-25T10:07:00.025Z,1.08
2023-01-25T10:10:00.775Z,1.17
2023-01-25T10:12:33.860Z,1.20
2023-01-25T10:15:00.614Z,1.60
2023-01-25T10:17:27.267Z,0.90
2023-01-25T10:20:21.987Z,1.25
2023-01-25T10:22:56.264Z,1.00
2023-01-25T10:25:38.969Z,1.52
2023-01-25T10:28:41.550Z,1.00
2023-01-25T10:31:28.060Z,1.60
2023-01-25T10:33:57.048Z,0.90
2023-01-25T10:36:29.770Z,1.45
2023-01-25T10:39:01.324Z,1.08
2023-01-25T10:41:39.040Z,1.00
2023-01-25T10:44:38.330Z,0.85
2023-01-25T10:47:42.846Z,1.00
2023-01-25T10:50:10.928Z,0.90
2023-01-25T10:52:39.029Z,1.10
2023-01-25T10:55:16.609Z,1.17
2023-01-25T10:57:58.061Z,1.00
2023-01-25T11:00:30.782Z,1.08
2023-01-25T11:02:58.039Z,1.23
2023-01-25T11:05:32.449Z,1.08
2023-01-25T11:08:16.389Z,1.00
2023-01-25T11:10:45.720Z,0.63
2023-01-25T11:13:15.641Z,1.33
2023-01-25T11:15:45.376Z,1.10
2023-01-25T11:18:21.251Z,1.02
2023-01-25T11:20:49.029Z,0.85
2023-01-25T11:23:26.032Z,1.17
2023-01-25T11:25:53.569Z,0.95
2023-01-25T11:28:23.577Z,1.10
2023-01-25T11:30:52.969Z,0.98
2023-01-25T11:33:22.444Z,0.90
2023-01-25T11:36:09.598Z,0.88
2023-01-25T11:38:37.989Z,0.70
2023-01-25T11:41:09.817Z,0.98
2023-01-25T11:44:15.275Z,0.73
2023-01-25T11:46:47.784Z,0.90
2023-01-25T11:49:24.091Z,0.90
2023-01-25T11:51:59.905Z,1.10
2023-01-25T11:55:08.145Z,1.02
2023-01-25T11:57:51.783Z,1.10
2023-01-25T12:00:37.414Z,1.20
2023-01-25T12:03:36.547Z,1.17
2023-01-25T12:06:38.195Z,1.67
2023-01-25T12:09:12.569Z,1.50
2023-01-25T12:11:58.181Z,2.15
2023-01-25T12:15:00.221Z,1.58
2023-01-25T12:17:32.816Z,1.70
2023-01-25T12:20:10.387Z,1.58
2023-01-25T12:23:08.104Z,1.27
2023-01-25T12:25:46.777Z,1.65
2023-01-25T12:28:39.462Z,1.80
2023-01-25T12:31:23.098Z,1.50
2023-01-25T12:34:01.865Z,1.58
2023-01-25T12:36:44.351Z,2.15
2023-01-25T12:39:15.732Z,1.45
2023-01-25T12:42:06.505Z,1.80
2023-01-25T12:44:42.585Z,1.65
2023-01-25T12:47:22.538Z,2.13
2023-01-25T12:49:55.654Z,1.58
2023-01-25T12:52:33.497Z,1.77
2023-01-25T12:55:12.832Z,1.70
2023-01-25T12:57:57.436Z,1.80
2023-01-25T13:00:46.151Z,1.90
2023-01-25T13:03:50.115Z,1.73
2023-01-25T13:06:42.049Z,2.28
2023-01-25T13:09:23.728Z,1.55
2023-01-25T13:11:50.918Z,1.83
2023-01-25T13:14:23.580Z,1.15
2023-01-25T13:17:09.506Z,2.10
2023-01-25T13:19:36.962Z,1.20
2023-01-25T13:22:04.559Z,1.63
2023-01-25T13:24:55.607Z,1.50
2023-01-25T13:27:35.865Z,1.48
2023-01-25T13:30:23.081Z,1.45
2023-01-25T13:32:50.072Z,1.98
2023-01-25T13:35:30.582Z,1.40
2023-01-25T13:38:20.808Z,1.40
2023-01-25T13:41:10.989Z,1.77
2023-01-25T13:43:39.635Z,1.10
2023-01-25T13:46:10.718Z,1.10
2023-01-25T13:48:48.785Z,1.20
2023-01-25T13:51:18.463Z,1.50
2023-01-25T13:53:56.133Z,2.58
2023-01-25T13:56:34.853Z,1.70
2023-01-25T13:59:01.843Z,1.60
2023-01-25T14:01:31.065Z,1.30
2023-01-25T14:04:02.357Z,1.40
2023-01-25T14:06:31.225Z,1.38
2023-01-25T14:09:07.941Z,1.13
2023-01-25T14:11:43.957Z,1.38
2023-01-25T14:14:25.835Z,1.23
2023-01-25T14:17:23.513Z,1.30
2023-01-25T14:19:55.150Z,1.48
2023-01-25T14:22:30.825Z,1.60
2023-01-25T14:25:15.565Z,1.58
2023-01-25T14:27:48.902Z,1.45
2023-01-25T14:30:21.949Z,1.80
2023-01-25T14:32:51.318Z,1.90
2023-01-25T14:35:42.450Z,1.75
2023-01-25T14:38:29.100Z,1.50
2023-01-25T14:41:01.083Z,1.70
2023-01-25T14:43:28.931Z,1.48
2023-01-25T14:45:56.159Z,1.65
2023-01-25T14:48:41.024Z,1.30
2023-01-25T14:51:17.000Z,1.65
2023-01-25T14:53:48.090Z,1.50
2023-01-25T14:56:45.225Z,1.42
2023-01-25T14:59:25.177Z,1.70
2023-01-25T15:01:54.509Z,1.33
2023-01-25T15:04:21.887Z,1.55
2023-01-25T15:06:51.898Z,1.80
2023-01-25T15:09:43.057Z,1.63
2023-01-25T15:12:16.015Z,1.95
2023-01-25T15:14:51.402Z,1.38
2023-01-25T15:17:43.322Z,1.80
2023-01-25T15:20:43.603Z,1.88
2023-01-25T15:23:28.451Z,1.88
2023-01-25T15:26:01.110Z,1.98
2023-01-25T15:28:34.498Z,1.63
2023-01-25T15:31:01.645Z,1.95
2023-01-25T15:33:30.620Z,2.22
2023-01-25T15:35:57.702Z,1.83
2023-01-25T15:38:25.329Z,1.92
2023-01-25T15:40:52.833Z,2.25
2023-01-25T15:43:20.277Z,1.85
2023-01-25T15:45:49.755Z,2.10
2023-01-25T15:48:20.023Z,2.42
2023-01-25T15:50:47.061Z,2.20
2023-01-25T15:53:15.921Z,1.90
2023-01-25T15:55:46.138Z,2.20
2023-01-25T15:58:18.103Z,1.83
2023-01-25T16:00:44.983Z,1.55
2023-01-25T16:03:11.969Z,1.95
2023-01-25T16:05:39.300Z,1.90
2023-01-25T16:08:06.453Z,1.58
2023-01-25T16:10:33.701Z,2.10
2023-01-25T16:13:00.622Z,1.60
2023-01-25T16:15:27.525Z,1.98
2023-01-25T16:17:54.470Z,2.17
2023-01-25T16:20:22.108Z,1.80
2023-01-25T16:22:49.001Z,1.77
2023-01-25T16:25:16.055Z,1.95
2023-01-25T16:27:42.950Z,1.80
2023-01-25T16:30:17.638Z,1.70
2023-01-25T16:32:45.353Z,1.42
2023-01-25T16:35:12.656Z,1.70
2023-01-25T16:37:39.548Z,1.52
2023-01-25T16:40:06.911Z,1.33
2023-01-25T16:42:34.042Z,1.60
2023-01-25T16:45:01.046Z,1.60
2023-01-25T16:47:27.990Z,1.52
2023-01-25T16:49:54.674Z,1.67
2023-01-25T16:52:21.415Z,1.75
2023-01-25T16:54:48.403Z,1.75
2023-01-25T16:57:20.409Z,1.25
2023-01-25T16:59:47.710Z,1.17
2023-01-25T17:02:14.483Z,1.15
2023-01-25T17:04:41.580Z,1.30
2023-01-25T17:07:10.629Z,2.00
2023-01-25T17:09:38.265Z,1.30
2023-01-25T17:12:06.631Z,0.90
2023-01-25T17:14:35.364Z,1.40
2023-01-25T17:17:02.060Z,1.45
2023-01-25T17:19:29.101Z,1.05
2023-01-25T17:21:59.223Z,0.93
2023-01-25T17:24:26.325Z,1.23
2023-01-25T17:26:57.963Z,1.27
2023-01-25T17:29:25.468Z,2.30
2023-01-25T17:31:52.573Z,1.77
2023-01-25T17:34:20.057Z,1.20
2023-01-25T17:36:46.765Z,1.30
2023-01-25T17:39:15.645Z,1.48
2023-01-25T17:41:46.959Z,1.13
2023-01-25T17:44:17.558Z,1.73
2023-01-25T17:46:44.521Z,1.38
2023-01-25T17:49:13.761Z,1.70
2023-01-25T17:51:40.628Z,1.58
2023-01-25T17:54:07.510Z,1.58
2023-01-25T17:56:34.516Z,1.25
2023-01-25T17:59:02.295Z,1.25
2023-01-25T18:01:32.249Z,1.20
2023-01-25T18:04:00.788Z,1.60
2023-01-25T18:06:30.426Z,1.50
2023-01-25T18:09:00.402Z,1.60
2023-01-25T18:11:31.136Z,1.67
2023-01-25T18:14:00.601Z,1.65
2023-01-25T18:16:30.011Z,2.00
2023-01-25T18:18:58.920Z,1.55
2023-01-25T18:21:28.497Z,1.70
2023-01-25T18:23:58.142Z,2.05
2023-01-25T18:26:30.694Z,1.80
2023-01-25T18:29:47.664Z,2.10
2023-01-25T18:32:15.790Z,2.42
2023-01-25T18:34:42.951Z,1.55
2023-01-25T18:37:19.307Z,2.20
2023-01-25T18:39:53.190Z,1.70
2023-01-25T18:42:22.138Z,1.83
2023-01-25T18:44:49.513Z,1.90
2023-01-25T18:47:21.745Z,1.60
2023-01-25T18:49:50.481Z,1.70
2023-01-25T18:52:19.156Z,1.65
2023-01-25T18:54:46.620Z,1.90
2023-01-25T18:57:14.083Z,1.95
2023-01-25T18:59:41.404Z,2.05
2023-01-25T19:02:10.302Z,1.95
2023-01-25T19:04:37.262Z,2.40
2023-01-25T19:07:04.950Z,2.67
2023-01-25T19:09:32.031Z,2.40
2023-01-25T19:11:59.357Z,2.20
2023-01-25T19:14:26.577Z,2.35
2023-01-25T19:16:53.624Z,2.58
2023-01-25T19:19:23.756Z,2.20
2023-01-25T19:21:50.855Z,2.65
2023-01-25T19:24:19.607Z,2.38
2023-01-25T19:26:47.537Z,2.33
2023-01-25T19:29:15.654Z,2.15
2023-01-25T19:31:42.776Z,2.35
2023-01-25T19:34:09.812Z,2.47
2023-01-25T19:36:39.611Z,2.08
2023-01-25T19:39:10.232Z,2.60
2023-01-25T19:41:39.090Z,2.20
2023-01-25T19:44:07.020Z,2.40
2023-01-25T19:46:36.223Z,2.72
2023-01-25T19:49:05.613Z,2.50
2023-01-25T19:51:37.557Z,2.65
2023-01-25T19:54:10.664Z,2.40
2023-01-25T19:56:41.440Z,2.95
2023-01-25T19:59:12.337Z,2.60
2023-01-25T20:01:43.846Z,2.85
2023-01-25T20:04:17.041Z,2.70
2023-01-25T20:06:44.473Z,3.17
2023-01-25T20:09:17.491Z,3.67
2023-01-25T20:11:46.607Z,3.08
2023-01-25T20:14:14.259Z,3.40
2023-01-25T20:16:41.873Z,3.78
2023-01-25T20:19:12.141Z,3.78
2023-01-25T20:21:39.946Z,3.47
2023-01-25T20:24:08.410Z,4.07
2023-01-25T20:26:39.237Z,4.32
2023-01-25T20:29:07.200Z,4.30
2023-01-25T20:31:37.281Z,4.47
2023-01-25T20:34:12.045Z,4.60
2023-01-25T20:36:39.291Z,4.13
2023-01-25T20:39:06.945Z,4.15
2023-01-25T20:41:34.405Z,4.25
2023-01-25T20:44:11.403Z,3.72
2023-01-25T20:46:40.191Z,4.22
2023-01-25T20:49:09.224Z,3.38
2023-01-25T20:51:36.659Z,3.72
2023-01-25T20:54:03.815Z,3.65
2023-01-25T20:56:31.824Z,3.45
2023-01-25T20:58:58.809Z,3.40
2023-01-25T21:01:29.835Z,4.20
2023-01-25T21:03:58.488Z,3.83
2023-01-25T21:06:31.599Z,3.40
2023-01-25T21:08:59.508Z,2.92
2023-01-25T21:11:26.649Z,3.40
2023-01-25T21:13:56.531Z,2.92
2023-01-25T21:16:24.118Z,3.40
2023-01-25T21:18:56.463Z,2.88
2023-01-25T21:21:29.116Z,3.10
2023-01-25T21:24:00.227Z,2.90
2023-01-25T21:26:29.689Z,3.03
2023-01-25T21:28:57.069Z,3.30
2023-01-25T21:31:26.443Z,2.67
2023-01-25T21:33:54.749Z,3.25
2023-01-25T21:36:22.577Z,3.33
2023-01-25T21:38:51.362Z,2.80
2023-01-25T21:41:20.609Z,3.13
2023-01-25T21:44:07.139Z,3.25
2023-01-25T21:46:36.342Z,3.42
2023-01-25T21:49:24.842Z,3.28
2023-01-25T21:51:58.199Z,2.75
2023-01-25T21:54:27.710Z,3.20
2023-01-25T21:56:56.788Z,3.38
2023-01-25T21:59:24.307Z,3.15
2023-01-25T22:01:51.972Z,3.22
2023-01-25T22:04:20.436Z,3.00
2023-01-25T22:06:52.325Z,3.42
2023-01-25T22:09:19.580Z,3.08
2023-01-25T22:11:47.167Z,3.53
2023-01-25T22:14:24.487Z,3.30
2023-01-25T22:16:52.160Z,3.40
2023-01-25T22:19:19.710Z,3.35
2023-01-25T22:21:46.803Z,3.42
2023-01-25T22:24:14.688Z,3.38
2023-01-25T22:26:59.826Z,2.95
2023-01-25T22:29:27.010Z,3.60
2023-01-25T22:31:53.795Z,3.10
2023-01-25T22:34:20.757Z,3.00
2023-01-25T22:36:48.829Z,2.80
2023-01-25T22:39:16.138Z,2.92
2023-01-25T22:41:43.085Z,3.42
2023-01-25T22:44:14.681Z,3.65
2023-01-25T22:46:41.528Z,3.40
2023-01-25T22:49:08.920Z,3.47
2023-01-25T22:51:35.911Z,3.08
2023-01-25T22:54:03.042Z,3.30
2023-01-25T22:56:32.207Z,4.13
2023-01-25T22:59:00.133Z,3.20
2023-01-25T23:01:29.712Z,3.65
2023-01-25T23:03:57.371Z,3.45
2023-01-25T23:06:29.753Z,3.60
2023-01-25T23:09:01.065Z,3.05
2023-01-25T23:11:32.421Z,4.00
2023-01-25T23:14:18.267Z,3.60
2023-01-25T23:16:45.774Z,3.30
2023-01-25T23:19:12.887Z,3.42
2023-01-25T23:21:41.477Z,2.97
2023-01-25T23:24:09.308Z,3.17
2023-01-25T23:26:39.663Z,3.75
2023-01-25T23:29:10.998Z,3.80
2023-01-25T23:31:38.156Z,3.88
2023-01-25T23:34:06.679Z,3.90
2023-01-25T23:36:36.531Z,3.40
2023-01-25T23:39:03.726Z,4.18
2023-01-25T23:41:30.945Z,4.20
2023-01-25T23:43:58.346Z,3.17
2023-01-25T23:46:26.177Z,3.40
2023-01-25T23:48:53.183Z,3.55
2023-01-25T23:51:20.793Z,3.50
2023-01-25T23:53:48.351Z,3.85
2023-01-25T23:56:18.408Z,3.63
2023-01-25T23:58:46.406Z,3.63
